East Ryegate, Vermont
Current Conditions -  °F | °C
As of 6:51 AM on Monday 20 Oct 2014 (Local Time) from KMPV Reporting Station
Few Clouds Few Clouds  
Wind Chill: 32°   Ceiling: Unl
Heat Index: 32°   Visibility: 10mi
Dew Point: 27°   Wind: 3mph
Humidity: 82%   Direction: 170°S
Pressure: 30"   Gusts: NA
Location:  44.2°N, 72.06°W
Report Text: KMPV 201051Z AUTO 17003KT 10SM FEW034 00/M03 A3000 RMK AO2 SLP173 T00001028 $
Loading
Personal Weather Stations






























Interactive Weather Map
Tropical Storm Tracking
New forecast layout! Learn more

10-Day Weather Forecast

Advertisements
Track Severe Weather on mobile